createdAt,value
2023-01-24T00:01:32.501Z,8.23
2023-01-24T00:03:59.152Z,8.90
2023-01-24T00:06:25.972Z,9.40
2023-01-24T00:08:53.948Z,9.30
2023-01-24T00:11:21.471Z,9.13
2023-01-24T00:13:48.086Z,9.88
2023-01-24T00:16:22.065Z,9.70
2023-01-24T00:18:49.553Z,9.05
2023-01-24T00:21:21.542Z,9.23
2023-01-24T00:23:50.611Z,8.23
2023-01-24T00:26:18.162Z,9.48
2023-01-24T00:28:45.659Z,9.68
2023-01-24T00:31:12.225Z,9.00
2023-01-24T00:33:38.813Z,9.30
2023-01-24T00:36:06.363Z,8.98
2023-01-24T00:38:33.007Z,9.02
2023-01-24T00:40:59.807Z,9.15
2023-01-24T00:43:29.086Z,9.52
2023-01-24T00:45:56.241Z,7.93
2023-01-24T00:48:23.043Z,7.75
2023-01-24T00:50:49.773Z,9.32
2023-01-24T00:53:16.442Z,8.35
2023-01-24T00:55:45.105Z,8.55
2023-01-24T01:00:40.427Z,7.63
2023-01-24T01:03:10.750Z,8.95
2023-01-24T01:05:37.276Z,9.07
2023-01-24T01:08:03.857Z,9.25
2023-01-24T01:10:30.513Z,9.50
2023-01-24T01:12:58.018Z,9.32
2023-01-24T01:15:24.761Z,9.52
2023-01-24T01:17:51.283Z,7.68
2023-01-24T01:20:19.144Z,9.13
2023-01-24T01:22:45.651Z,9.82
2023-01-24T01:25:12.236Z,8.77
2023-01-24T01:27:39.211Z,8.68
2023-01-24T01:30:06.351Z,10.07
2023-01-24T01:32:32.989Z,9.23
2023-01-24T01:34:59.520Z,8.95
2023-01-24T01:37:28.782Z,9.55
2023-01-24T01:39:55.341Z,9.43
2023-01-24T01:42:22.012Z,8.35
2023-01-24T01:44:51.492Z,8.57
2023-01-24T01:47:34.983Z,9.18
2023-01-24T01:50:06.833Z,8.50
2023-01-24T01:52:38.117Z,9.18
2023-01-24T01:55:12.843Z,8.85
2023-01-24T02:00:16.300Z,8.13
2023-01-24T06:44:14.701Z,9.48
2023-01-24T06:46:41.546Z,9.45
2023-01-24T06:53:01.598Z,9.23
2023-01-24T06:55:28.676Z,9.80
2023-01-24T06:57:59.726Z,9.65
2023-01-24T07:00:26.563Z,9.73
2023-01-24T07:03:03.897Z,10.35
2023-01-24T07:05:32.228Z,10.25
2023-01-24T07:07:59.419Z,9.77
2023-01-24T07:10:26.433Z,9.75
2023-01-24T07:12:54.402Z,9.20
2023-01-24T07:15:21.294Z,10.10
2023-01-24T07:17:49.855Z,9.15
2023-01-24T07:20:17.969Z,9.68
2023-01-24T07:22:45.402Z,9.50
2023-01-24T07:25:28.492Z,9.60
2023-01-24T07:27:55.566Z,8.80
2023-01-24T07:30:22.481Z,8.85
2023-01-24T07:32:49.199Z,9.68
2023-01-24T07:35:16.747Z,10.23
2023-01-24T07:37:45.212Z,9.65
2023-01-24T07:40:12.661Z,9.27
2023-01-24T07:42:39.462Z,9.98
2023-01-24T07:45:07.045Z,9.95
2023-01-24T07:47:35.018Z,9.43
2023-01-24T07:50:01.829Z,9.40
2023-01-24T07:52:28.644Z,9.05
2023-01-24T07:54:55.629Z,8.60
2023-01-24T07:57:23.244Z,9.77
2023-01-24T07:59:50.327Z,9.27
2023-01-24T08:02:17.252Z,10.40
2023-01-24T08:04:44.630Z,8.95
2023-01-24T08:07:17.970Z,8.40
2023-01-24T08:09:46.228Z,8.80
2023-01-24T08:12:13.382Z,8.45
2023-01-24T08:14:40.682Z,9.48
2023-01-24T08:17:07.906Z,10.70
2023-01-24T08:19:54.782Z,9.30
2023-01-24T08:22:21.760Z,9.25
2023-01-24T08:24:48.796Z,10.60
2023-01-24T08:27:15.569Z,9.40
2023-01-24T08:29:42.382Z,9.85
2023-01-24T08:32:09.534Z,9.68
2023-01-24T08:34:36.573Z,9.40
2023-01-24T08:37:03.242Z,9.68
2023-01-24T08:39:30.980Z,9.77
2023-01-24T08:41:57.777Z,8.77
2023-01-24T08:44:24.569Z,11.25
2023-01-24T08:46:52.984Z,8.98
2023-01-24T08:49:21.111Z,9.63
2023-01-24T08:51:48.791Z,10.55
2023-01-24T08:54:16.289Z,10.57
2023-01-24T08:56:43.032Z,9.43
2023-01-24T08:59:10.002Z,11.20
2023-01-24T09:01:36.895Z,10.75
2023-01-24T09:04:05.885Z,10.02
2023-01-24T09:06:32.834Z,11.18
2023-01-24T09:09:00.604Z,9.73
2023-01-24T09:11:27.837Z,10.00
2023-01-24T09:13:55.145Z,9.80
2023-01-24T09:16:22.054Z,9.75
2023-01-24T09:18:50.533Z,10.13
2023-01-24T09:21:17.285Z,7.80
2023-01-24T09:23:44.317Z,8.80
2023-01-24T09:26:11.328Z,9.15
2023-01-24T09:28:41.266Z,8.15
2023-01-24T09:31:10.164Z,9.18
2023-01-24T09:33:39.334Z,9.48
2023-01-24T09:36:10.259Z,9.32
2023-01-24T09:38:37.377Z,9.00
2023-01-24T09:41:20.337Z,8.75
2023-01-24T09:43:53.490Z,7.43
2023-01-24T09:46:55.705Z,8.95
2023-01-24T09:49:46.138Z,8.07
2023-01-24T09:52:21.786Z,8.95
2023-01-24T09:54:57.399Z,9.30
2023-01-24T09:57:33.458Z,9.32
2023-01-24T10:00:14.008Z,10.10
2023-01-24T10:02:40.897Z,9.90
2023-01-24T10:05:14.552Z,10.35
2023-01-24T10:07:56.257Z,9.65
2023-01-24T10:10:46.295Z,10.43
2023-01-24T10:13:13.283Z,9.82
2023-01-24T10:15:49.066Z,10.07
2023-01-24T10:18:23.297Z,10.38
2023-01-24T10:21:09.185Z,10.55
2023-01-24T10:23:40.960Z,9.68
2023-01-24T10:26:20.073Z,9.82
2023-01-24T10:28:56.582Z,9.70
2023-01-24T10:31:36.023Z,10.13
2023-01-24T10:34:35.505Z,10.10
2023-01-24T10:37:11.773Z,10.15
2023-01-24T10:39:39.100Z,8.73
2023-01-24T10:42:29.990Z,9.25
2023-01-24T10:45:02.103Z,8.63
2023-01-24T10:48:00.846Z,9.82
2023-01-24T10:50:35.569Z,11.52
2023-01-24T10:53:29.402Z,8.43
2023-01-24T10:56:03.905Z,9.52
2023-01-24T10:58:39.437Z,10.07
2023-01-24T11:01:21.521Z,10.45
2023-01-24T11:03:50.773Z,10.27
2023-01-24T11:06:37.562Z,10.02
2023-01-24T11:09:16.577Z,10.60
2023-01-24T11:11:50.999Z,10.63
2023-01-24T11:14:21.945Z,9.48
2023-01-24T11:16:52.377Z,10.65
2023-01-24T11:19:43.286Z,10.13
2023-01-24T11:22:22.729Z,9.82
2023-01-24T11:24:55.360Z,11.15
2023-01-24T11:27:23.088Z,10.25
2023-01-24T11:30:08.794Z,10.32
2023-01-24T11:32:44.709Z,10.73
2023-01-24T11:35:25.948Z,11.30
2023-01-24T11:38:26.728Z,11.15
2023-01-24T11:41:03.521Z,11.43
2023-01-24T11:43:58.354Z,12.15
2023-01-24T11:46:35.831Z,13.20
2023-01-24T11:49:14.504Z,11.50
2023-01-24T11:52:05.252Z,10.45
2023-01-24T11:54:59.184Z,11.20
2023-01-24T11:57:41.389Z,11.15
2023-01-24T12:00:22.437Z,10.82
2023-01-24T12:03:28.138Z,12.25
2023-01-24T12:06:18.551Z,11.85
2023-01-24T12:09:18.234Z,11.48
2023-01-24T12:11:52.963Z,12.02
2023-01-24T12:14:30.929Z,10.27
2023-01-24T12:17:15.249Z,13.00
2023-01-24T12:20:24.717Z,12.80
2023-01-24T12:23:03.612Z,11.35
2023-01-24T12:25:40.050Z,12.52
2023-01-24T12:28:12.736Z,13.52
2023-01-24T12:30:46.289Z,13.25
2023-01-24T12:33:33.466Z,12.98
2023-01-24T12:36:22.404Z,12.70
2023-01-24T12:38:56.602Z,14.15
2023-01-24T12:41:39.978Z,13.93
2023-01-24T12:44:43.873Z,13.07
2023-01-24T12:47:33.985Z,14.85
2023-01-24T12:50:21.564Z,12.90
2023-01-24T12:53:02.087Z,13.20
2023-01-24T12:55:38.811Z,13.80
2023-01-24T12:58:35.854Z,15.63
2023-01-24T13:01:18.173Z,14.02
2023-01-24T13:04:21.246Z,13.13
2023-01-24T13:07:28.146Z,13.82
2023-01-24T13:10:14.287Z,13.35
2023-01-24T13:12:43.833Z,13.73
2023-01-24T13:15:25.518Z,13.70
2023-01-24T13:18:19.951Z,13.63
2023-01-24T13:21:08.307Z,14.48
2023-01-24T13:24:04.058Z,13.05
2023-01-24T13:27:01.390Z,14.93
2023-01-24T13:29:41.869Z,13.77
2023-01-24T13:32:18.974Z,13.13
2023-01-24T13:34:55.261Z,13.23
2023-01-24T13:37:26.974Z,12.65
2023-01-24T13:40:12.970Z,13.93
2023-01-24T13:42:40.901Z,14.02
2023-01-24T13:45:40.832Z,14.18
2023-01-24T13:48:44.228Z,13.15
2023-01-24T13:51:23.230Z,14.05
2023-01-24T13:54:17.011Z,14.30
2023-01-24T13:57:21.497Z,13.85
2023-01-24T14:00:22.724Z,14.35
2023-01-24T14:02:49.687Z,13.38
2023-01-24T14:05:43.209Z,12.68
2023-01-24T14:08:09.960Z,13.10
2023-01-24T14:10:39.842Z,14.60
2023-01-24T14:13:45.419Z,14.07
2023-01-24T14:16:25.290Z,14.27
2023-01-24T14:18:59.991Z,12.25
2023-01-24T14:21:45.577Z,12.95
2023-01-24T14:24:55.500Z,13.13
2023-01-24T14:27:32.411Z,13.18
2023-01-24T14:30:09.845Z,13.88
2023-01-24T14:32:45.925Z,13.00
2023-01-24T14:35:21.462Z,14.20
2023-01-24T14:37:50.354Z,14.57
2023-01-24T14:42:58.753Z,12.65
2023-01-24T14:45:28.442Z,12.85
2023-01-24T14:47:57.261Z,13.70
2023-01-24T14:50:34.448Z,12.60
2023-01-24T14:53:02.479Z,12.23
2023-01-24T14:55:43.496Z,13.75
2023-01-24T14:58:21.225Z,13.30
2023-01-24T15:00:50.427Z,12.63
2023-01-24T15:03:26.307Z,11.70
2023-01-24T15:05:57.125Z,12.73
2023-01-24T15:08:26.305Z,11.90
2023-01-24T15:11:06.673Z,12.00
2023-01-24T15:13:44.614Z,10.93
2023-01-24T15:16:24.561Z,11.93
2023-01-24T15:18:55.595Z,11.90
2023-01-24T15:21:35.983Z,12.15
2023-01-24T15:24:04.305Z,11.18
2023-01-24T15:26:34.179Z,13.77
2023-01-24T15:29:39.365Z,12.50
2023-01-24T15:32:35.033Z,11.35
2023-01-24T15:35:26.892Z,11.90
2023-01-24T15:38:17.092Z,11.38
2023-01-24T15:40:59.712Z,12.45
2023-01-24T15:43:47.271Z,11.20
2023-01-24T15:46:37.365Z,11.15
2023-01-24T15:49:39.752Z,10.93
2023-01-24T15:52:10.369Z,11.48
2023-01-24T15:54:43.083Z,11.15
2023-01-24T15:57:27.747Z,10.65
2023-01-24T16:00:02.331Z,11.55
2023-01-24T16:07:24.505Z,11.68
2023-01-24T16:09:54.375Z,10.55
2023-01-24T16:12:22.596Z,12.52
2023-01-24T16:15:07.007Z,11.30
2023-01-24T16:17:34.929Z,11.95
2023-01-24T16:20:02.269Z,11.32
2023-01-24T16:22:30.081Z,10.90
2023-01-24T16:24:56.877Z,11.70
2023-01-24T16:27:23.587Z,11.70
2023-01-24T16:29:51.499Z,11.57
2023-01-24T16:32:24.307Z,10.98
2023-01-24T16:34:51.301Z,13.73
2023-01-24T16:37:21.945Z,12.55
2023-01-24T16:39:49.556Z,11.63
2023-01-24T16:42:19.047Z,11.82
2023-01-24T16:45:01.645Z,11.05
2023-01-24T16:47:29.107Z,12.32
2023-01-24T16:49:57.210Z,12.52
2023-01-24T16:52:26.096Z,12.82
2023-01-24T16:54:53.153Z,12.60
2023-01-24T16:57:20.608Z,12.13
2023-01-24T16:59:47.774Z,12.88
2023-01-24T17:02:15.449Z,12.00
2023-01-24T17:04:42.404Z,13.80
2023-01-24T17:07:09.239Z,13.40
2023-01-24T17:09:36.176Z,12.68
2023-01-24T17:12:13.685Z,13.30
2023-01-24T17:14:41.795Z,13.25
2023-01-24T17:17:09.304Z,13.10
2023-01-24T17:19:38.884Z,13.88
2023-01-24T17:22:06.946Z,13.23
2023-01-24T17:24:34.636Z,12.35
2023-01-24T17:27:01.751Z,12.85
2023-01-24T17:29:29.136Z,12.88
2023-01-24T17:31:57.389Z,11.80
2023-01-24T17:34:24.761Z,13.95
2023-01-24T17:36:52.652Z,13.20
2023-01-24T17:39:20.018Z,13.82
2023-01-24T17:41:46.972Z,13.63
2023-01-24T17:44:17.469Z,12.13
2023-01-24T17:46:45.068Z,12.82
2023-01-24T17:49:12.126Z,13.35
2023-01-24T17:51:39.069Z,13.13
2023-01-24T17:54:11.416Z,12.48
2023-01-24T17:56:39.207Z,12.27
2023-01-24T17:59:06.094Z,13.80
2023-01-24T18:01:33.141Z,13.23
2023-01-24T18:04:01.886Z,11.70
2023-01-24T18:06:28.707Z,12.82
2023-01-24T18:08:55.248Z,13.48
2023-01-24T18:11:22.287Z,12.77
2023-01-24T18:13:49.259Z,13.05
2023-01-24T18:16:19.205Z,12.75
2023-01-24T18:18:48.983Z,12.90
2023-01-24T18:21:20.041Z,13.43
2023-01-24T18:23:51.638Z,13.23
2023-01-24T18:26:18.392Z,13.00
2023-01-24T18:28:45.179Z,14.52
2023-01-24T18:31:12.802Z,13.23
2023-01-24T18:33:40.404Z,13.57
2023-01-24T18:36:12.976Z,14.13
2023-01-24T18:38:40.961Z,12.70
2023-01-24T18:41:07.752Z,13.23
2023-01-24T18:43:37.408Z,13.10
2023-01-24T18:46:05.976Z,13.45
2023-01-24T18:51:09.380Z,12.07
2023-01-24T18:53:36.011Z,12.40
2023-01-24T18:56:05.286Z,13.68
2023-01-24T18:58:34.039Z,15.70
2023-01-24T19:01:08.287Z,14.77
2023-01-24T19:03:35.352Z,14.23
2023-01-24T19:06:02.467Z,13.82
2023-01-24T19:08:29.425Z,16.42
2023-01-24T19:10:56.584Z,15.95
2023-01-24T19:13:23.456Z,15.70
2023-01-24T19:15:51.953Z,14.55
2023-01-24T19:18:20.427Z,14.55
2023-01-24T19:23:14.624Z,13.65
2023-01-24T19:26:02.387Z,14.45
2023-01-24T19:29:00.410Z,15.63
2023-01-24T19:31:28.752Z,13.65
2023-01-24T19:33:55.991Z,14.50
2023-01-24T19:36:24.312Z,13.57
2023-01-24T19:38:56.913Z,13.95
2023-01-24T19:41:25.717Z,14.65
2023-01-24T19:44:18.538Z,15.20
2023-01-24T19:46:39.584Z,13.52
2023-01-24T19:49:06.134Z,14.23
2023-01-24T19:51:32.853Z,16.02
2023-01-24T19:53:59.301Z,15.60
2023-01-24T19:56:25.907Z,14.70
2023-01-24T19:58:55.364Z,14.88
2023-01-24T20:01:22.209Z,15.35
2023-01-24T20:03:49.211Z,16.80
2023-01-24T20:06:20.958Z,14.85
2023-01-24T20:08:53.025Z,15.35
2023-01-24T20:11:21.455Z,15.73
2023-01-24T20:13:48.147Z,14.93
2023-01-24T20:16:26.516Z,14.18
2023-01-24T20:18:58.227Z,14.05
2023-01-24T20:21:27.636Z,15.75
2023-01-24T20:23:56.166Z,16.33
2023-01-24T20:26:22.944Z,15.23
2023-01-24T20:28:50.050Z,15.07
2023-01-24T20:31:16.974Z,14.98
2023-01-24T20:33:43.989Z,16.23
2023-01-24T20:36:14.170Z,15.98
2023-01-24T20:38:41.510Z,16.35
2023-01-24T20:41:13.147Z,16.10
2023-01-24T20:43:40.994Z,15.30
2023-01-24T20:46:20.693Z,15.93
2023-01-24T20:48:49.537Z,15.43
2023-01-24T20:51:17.305Z,15.90
2023-01-24T21:28:12.339Z,15.73
2023-01-24T21:30:39.136Z,18.42
2023-01-24T21:33:08.019Z,17.60
2023-01-24T21:35:34.812Z,17.70
2023-01-24T21:38:01.329Z,16.35
2023-01-24T21:40:27.897Z,17.48
2023-01-24T21:42:55.634Z,17.58
2023-01-24T21:45:22.493Z,18.55
2023-01-24T21:47:49.148Z,16.30
2023-01-24T21:50:16.144Z,17.33
2023-01-24T21:52:44.537Z,17.55
2023-01-24T21:55:12.484Z,16.20
2023-01-24T21:57:58.200Z,19.35
2023-01-24T22:00:24.927Z,18.52
2023-01-24T22:03:11.591Z,18.85
2023-01-24T22:05:38.254Z,17.63
2023-01-24T22:08:05.255Z,19.23
2023-01-24T22:10:31.910Z,17.80
2023-01-24T22:12:58.718Z,18.05
2023-01-24T22:15:25.999Z,17.30
2023-01-24T22:17:53.083Z,18.23
2023-01-24T22:20:19.790Z,20.05
2023-01-24T22:22:56.656Z,18.52
2023-01-24T22:25:49.959Z,17.85
2023-01-24T22:28:19.415Z,17.55
2023-01-24T22:30:47.145Z,18.45
2023-01-24T22:33:13.961Z,18.92
2023-01-24T22:35:41.395Z,17.15
2023-01-24T22:38:07.934Z,17.85
2023-01-24T22:40:34.760Z,17.30
2023-01-24T22:43:01.329Z,19.65
2023-01-24T22:45:29.466Z,17.77
2023-01-24T22:47:56.682Z,17.35
2023-01-24T22:50:23.277Z,16.20
2023-01-24T22:52:50.223Z,19.42
2023-01-24T22:55:17.828Z,18.17
2023-01-24T22:57:44.264Z,18.35
2023-01-24T23:00:12.520Z,17.85
2023-01-24T23:02:39.455Z,18.77
2023-01-24T23:05:06.853Z,20.25
2023-01-24T23:07:33.951Z,18.65
2023-01-24T23:10:00.489Z,19.45
2023-01-24T23:12:45.651Z,20.67
2023-01-24T23:15:31.702Z,19.73
2023-01-24T23:17:58.201Z,18.77
2023-01-24T23:20:43.446Z,18.27
2023-01-24T23:23:09.928Z,17.20
2023-01-24T23:25:36.519Z,19.50
2023-01-24T23:28:03.167Z,18.73
2023-01-24T23:30:49.929Z,17.75
2023-01-24T23:33:40.554Z,16.08
2023-01-24T23:36:09.423Z,17.20
2023-01-24T23:38:35.930Z,18.45
2023-01-24T23:41:07.074Z,18.77
2023-01-24T23:43:33.598Z,17.67
2023-01-24T23:46:00.508Z,17.17
2023-01-24T23:48:27.334Z,18.40
2023-01-24T23:50:58.777Z,18.40
2023-01-24T23:53:25.897Z,17.77
2023-01-24T23:55:52.449Z,17.58
2023-01-24T23:58:18.892Z,17.52
